sensor_id;sensor_type;location;lat;lon;timestamp;P1;durP1;ratioP1;P2;durP2;ratioP2
18376;SDS011;9315;52.624;13.544;2022-12-05T00:01:34;179.97;;;44.53;;
18376;SDS011;9315;52.624;13.544;2022-12-05T00:04:09;189.67;;;42.30;;
18376;SDS011;9315;52.624;13.544;2022-12-05T00:06:46;174.53;;;38.40;;
18376;SDS011;9315;52.624;13.544;2022-12-05T00:09:16;168.03;;;41.83;;
18376;SDS011;9315;52.624;13.544;2022-12-05T00:11:46;184.93;;;43.73;;
18376;SDS011;9315;52.624;13.544;2022-12-05T00:14:13;172.27;;;41.77;;
18376;SDS011;9315;52.624;13.544;2022-12-05T00:16:41;176.53;;;43.30;;
18376;SDS011;9315;52.624;13.544;2022-12-05T00:19:10;179.93;;;41.50;;
18376;SDS011;9315;52.624;13.544;2022-12-05T00:21:46;168.80;;;43.67;;
18376;SDS011;9315;52.624;13.544;2022-12-05T00:24:14;172.13;;;40.23;;
18376;SDS011;9315;52.624;13.544;2022-12-05T00:26:45;164.60;;;42.27;;
18376;SDS011;9315;52.624;13.544;2022-12-05T00:29:13;200.23;;;42.57;;
18376;SDS011;9315;52.624;13.544;2022-12-05T00:31:40;215.47;;;43.40;;
18376;SDS011;9315;52.624;13.544;2022-12-05T00:34:07;207.00;;;45.53;;
18376;SDS011;9315;52.624;13.544;2022-12-05T00:36:34;156.83;;;42.50;;
18376;SDS011;9315;52.624;13.544;2022-12-05T00:39:04;164.90;;;43.03;;
18376;SDS011;9315;52.624;13.544;2022-12-05T00:41:37;149.57;;;39.60;;
18376;SDS011;9315;52.624;13.544;2022-12-05T00:44:04;164.97;;;40.90;;
18376;SDS011;9315;52.624;13.544;2022-12-05T00:46:32;160.60;;;41.27;;
18376;SDS011;9315;52.624;13.544;2022-12-05T00:49:02;162.90;;;43.57;;
18376;SDS011;9315;52.624;13.544;2022-12-05T00:51:32;158.80;;;41.07;;
18376;SDS011;9315;52.624;13.544;2022-12-05T00:54:07;158.20;;;38.60;;
18376;SDS011;9315;52.624;13.544;2022-12-05T00:56:39;150.10;;;40.20;;
18376;SDS011;9315;52.624;13.544;2022-12-05T00:59:07;153.67;;;44.03;;
18376;SDS011;9315;52.624;13.544;2022-12-05T01:01:41;141.67;;;38.63;;
18376;SDS011;9315;52.624;13.544;2022-12-05T01:04:15;172.60;;;43.93;;
18376;SDS011;9315;52.624;13.544;2022-12-05T01:06:47;155.90;;;43.87;;
18376;SDS011;9315;52.624;13.544;2022-12-05T01:09:16;177.53;;;40.20;;
18376;SDS011;9315;52.624;13.544;2022-12-05T01:11:46;160.37;;;41.83;;
18376;SDS011;9315;52.624;13.544;2022-12-05T01:14:15;156.20;;;39.43;;
18376;SDS011;9315;52.624;13.544;2022-12-05T01:16:47;163.10;;;42.63;;
18376;SDS011;9315;52.624;13.544;2022-12-05T01:19:21;154.10;;;41.93;;
18376;SDS011;9315;52.624;13.544;2022-12-05T01:21:53;171.03;;;40.17;;
18376;SDS011;9315;52.624;13.544;2022-12-05T01:24:21;160.57;;;41.47;;
18376;SDS011;9315;52.624;13.544;2022-12-05T01:26:52;143.90;;;40.00;;
18376;SDS011;9315;52.624;13.544;2022-12-05T01:29:19;141.80;;;40.07;;
18376;SDS011;9315;52.624;13.544;2022-12-05T01:31:49;175.60;;;41.43;;
18376;SDS011;9315;52.624;13.544;2022-12-05T01:34:17;156.93;;;40.17;;
18376;SDS011;9315;52.624;13.544;2022-12-05T01:36:45;141.53;;;41.07;;
18376;SDS011;9315;52.624;13.544;2022-12-05T01:39:13;156.40;;;41.23;;
18376;SDS011;9315;52.624;13.544;2022-12-05T01:41:42;139.07;;;38.70;;
18376;SDS011;9315;52.624;13.544;2022-12-05T01:46:44;153.70;;;41.33;;
18376;SDS011;9315;52.624;13.544;2022-12-05T01:49:15;169.47;;;42.17;;
18376;SDS011;9315;52.624;13.544;2022-12-05T01:52:06;148.07;;;40.20;;
18376;SDS011;9315;52.624;13.544;2022-12-05T01:54:45;164.67;;;44.90;;
18376;SDS011;9315;52.624;13.544;2022-12-05T01:57:15;131.33;;;35.13;;
18376;SDS011;9315;52.624;13.544;2022-12-05T01:59:46;144.30;;;44.23;;
18376;SDS011;9315;52.624;13.544;2022-12-05T02:02:21;155.23;;;39.70;;
18376;SDS011;9315;52.624;13.544;2022-12-05T02:05:08;197.27;;;40.77;;
18376;SDS011;9315;52.624;13.544;2022-12-05T02:07:48;152.73;;;41.13;;
18376;SDS011;9315;52.624;13.544;2022-12-05T02:10:16;147.03;;;42.10;;
18376;SDS011;9315;52.624;13.544;2022-12-05T02:12:44;149.70;;;40.80;;
18376;SDS011;9315;52.624;13.544;2022-12-05T02:18:20;167.90;;;41.83;;
18376;SDS011;9315;52.624;13.544;2022-12-05T02:25:24;171.40;;;39.83;;
18376;SDS011;9315;52.624;13.544;2022-12-05T02:46:22;155.13;;;43.80;;
18376;SDS011;9315;52.624;13.544;2022-12-05T02:48:56;161.20;;;40.60;;
18376;SDS011;9315;52.624;13.544;2022-12-05T02:51:30;156.10;;;38.47;;
18376;SDS011;9315;52.624;13.544;2022-12-05T02:54:04;141.57;;;39.47;;
18376;SDS011;9315;52.624;13.544;2022-12-05T02:56:39;136.67;;;41.67;;
18376;SDS011;9315;52.624;13.544;2022-12-05T02:59:10;161.77;;;39.57;;
18376;SDS011;9315;52.624;13.544;2022-12-05T03:01:37;158.83;;;41.33;;
18376;SDS011;9315;52.624;13.544;2022-12-05T03:04:05;142.97;;;39.07;;
18376;SDS011;9315;52.624;13.544;2022-12-05T03:06:37;142.73;;;38.13;;
18376;SDS011;9315;52.624;13.544;2022-12-05T03:09:48;162.60;;;39.23;;
18376;SDS011;9315;52.624;13.544;2022-12-05T03:12:31;140.57;;;38.47;;
18376;SDS011;9315;52.624;13.544;2022-12-05T03:15:09;157.77;;;40.43;;
18376;SDS011;9315;52.624;13.544;2022-12-05T03:17:51;149.57;;;38.97;;
18376;SDS011;9315;52.624;13.544;2022-12-05T03:20:48;150.27;;;38.30;;
18376;SDS011;9315;52.624;13.544;2022-12-05T03:23:57;130.13;;;38.80;;
18376;SDS011;9315;52.624;13.544;2022-12-05T03:29:42;142.47;;;37.83;;
18376;SDS011;9315;52.624;13.544;2022-12-05T03:33:11;119.63;;;37.23;;
18376;SDS011;9315;52.624;13.544;2022-12-05T03:42:10;123.63;;;35.30;;
18376;SDS011;9315;52.624;13.544;2022-12-05T03:44:48;121.57;;;32.50;;
18376;SDS011;9315;52.624;13.544;2022-12-05T03:47:53;107.43;;;33.13;;
18376;SDS011;9315;52.624;13.544;2022-12-05T03:50:49;109.23;;;29.93;;
18376;SDS011;9315;52.624;13.544;2022-12-05T03:53:22;113.93;;;34.10;;
18376;SDS011;9315;52.624;13.544;2022-12-05T03:56:03;100.57;;;31.73;;
18376;SDS011;9315;52.624;13.544;2022-12-05T03:58:52;99.60;;;30.93;;
18376;SDS011;9315;52.624;13.544;2022-12-05T04:01:30;88.23;;;29.33;;
18376;SDS011;9315;52.624;13.544;2022-12-05T04:04:11;93.83;;;30.00;;
18376;SDS011;9315;52.624;13.544;2022-12-05T04:06:52;87.67;;;29.43;;
18376;SDS011;9315;52.624;13.544;2022-12-05T04:09:46;86.50;;;30.37;;
18376;SDS011;9315;52.624;13.544;2022-12-05T04:12:22;86.60;;;29.17;;
18376;SDS011;9315;52.624;13.544;2022-12-05T04:14:56;76.13;;;27.60;;
18376;SDS011;9315;52.624;13.544;2022-12-05T04:20:20;74.73;;;26.30;;
18376;SDS011;9315;52.624;13.544;2022-12-05T04:23:24;76.47;;;27.73;;
18376;SDS011;9315;52.624;13.544;2022-12-05T04:28:48;77.77;;;28.03;;
18376;SDS011;9315;52.624;13.544;2022-12-05T04:31:57;63.50;;;24.43;;
18376;SDS011;9315;52.624;13.544;2022-12-05T04:34:33;67.60;;;23.43;;
18376;SDS011;9315;52.624;13.544;2022-12-05T04:37:05;64.63;;;25.40;;
18376;SDS011;9315;52.624;13.544;2022-12-05T04:39:46;71.73;;;24.67;;
18376;SDS011;9315;52.624;13.544;2022-12-05T04:42:27;64.20;;;24.40;;
18376;SDS011;9315;52.624;13.544;2022-12-05T04:44:58;61.57;;;24.10;;
18376;SDS011;9315;52.624;13.544;2022-12-05T04:47:38;67.63;;;23.77;;
18376;SDS011;9315;52.624;13.544;2022-12-05T04:50:13;63.30;;;22.73;;
18376;SDS011;9315;52.624;13.544;2022-12-05T04:52:43;62.57;;;22.80;;
18376;SDS011;9315;52.624;13.544;2022-12-05T04:55:17;68.53;;;20.87;;
18376;SDS011;9315;52.624;13.544;2022-12-05T05:00:37;57.17;;;22.10;;
18376;SDS011;9315;52.624;13.544;2022-12-05T05:03:31;49.43;;;20.43;;
18376;SDS011;9315;52.624;13.544;2022-12-05T05:06:28;54.33;;;20.87;;
18376;SDS011;9315;52.624;13.544;2022-12-05T05:08:56;58.47;;;22.57;;
18376;SDS011;9315;52.624;13.544;2022-12-05T05:11:24;52.17;;;21.13;;
18376;SDS011;9315;52.624;13.544;2022-12-05T05:13:56;55.60;;;20.30;;
18376;SDS011;9315;52.624;13.544;2022-12-05T05:16:25;45.73;;;19.90;;
18376;SDS011;9315;52.624;13.544;2022-12-05T05:18:59;45.70;;;17.23;;
18376;SDS011;9315;52.624;13.544;2022-12-05T05:21:32;46.27;;;17.27;;
18376;SDS011;9315;52.624;13.544;2022-12-05T05:24:04;45.17;;;17.20;;
18376;SDS011;9315;52.624;13.544;2022-12-05T05:26:33;43.47;;;18.07;;
18376;SDS011;9315;52.624;13.544;2022-12-05T05:29:04;41.10;;;17.27;;
18376;SDS011;9315;52.624;13.544;2022-12-05T05:31:32;43.23;;;17.93;;
18376;SDS011;9315;52.624;13.544;2022-12-05T05:34:00;38.73;;;16.97;;
18376;SDS011;9315;52.624;13.544;2022-12-05T05:36:34;45.43;;;17.00;;
18376;SDS011;9315;52.624;13.544;2022-12-05T05:39:03;40.47;;;15.87;;
18376;SDS011;9315;52.624;13.544;2022-12-05T05:41:32;40.97;;;16.27;;
18376;SDS011;9315;52.624;13.544;2022-12-05T05:44:02;38.07;;;15.27;;
18376;SDS011;9315;52.624;13.544;2022-12-05T05:46:30;38.73;;;16.30;;
18376;SDS011;9315;52.624;13.544;2022-12-05T05:49:01;36.63;;;15.80;;
18376;SDS011;9315;52.624;13.544;2022-12-05T05:51:29;38.00;;;15.30;;
18376;SDS011;9315;52.624;13.544;2022-12-05T05:53:57;35.47;;;14.27;;
18376;SDS011;9315;52.624;13.544;2022-12-05T05:56:26;35.27;;;14.50;;
18376;SDS011;9315;52.624;13.544;2022-12-05T05:58:58;39.10;;;14.70;;
18376;SDS011;9315;52.624;13.544;2022-12-05T06:01:28;46.60;;;15.10;;
18376;SDS011;9315;52.624;13.544;2022-12-05T06:03:56;34.80;;;14.53;;
18376;SDS011;9315;52.624;13.544;2022-12-05T06:06:24;33.17;;;15.03;;
18376;SDS011;9315;52.624;13.544;2022-12-05T06:08:51;34.73;;;14.30;;
18376;SDS011;9315;52.624;13.544;2022-12-05T06:11:23;33.93;;;13.70;;
18376;SDS011;9315;52.624;13.544;2022-12-05T06:13:55;32.80;;;13.53;;
18376;SDS011;9315;52.624;13.544;2022-12-05T06:16:28;30.67;;;13.40;;
18376;SDS011;9315;52.624;13.544;2022-12-05T06:18:57;35.40;;;14.73;;
18376;SDS011;9315;52.624;13.544;2022-12-05T06:21:24;27.83;;;13.83;;
18376;SDS011;9315;52.624;13.544;2022-12-05T06:23:52;30.90;;;12.03;;
18376;SDS011;9315;52.624;13.544;2022-12-05T06:26:20;30.20;;;13.30;;
18376;SDS011;9315;52.624;13.544;2022-12-05T06:28:48;29.30;;;12.87;;
18376;SDS011;9315;52.624;13.544;2022-12-05T06:31:17;33.00;;;13.40;;
18376;SDS011;9315;52.624;13.544;2022-12-05T06:33:48;29.37;;;13.30;;
18376;SDS011;9315;52.624;13.544;2022-12-05T06:36:18;31.23;;;13.30;;
18376;SDS011;9315;52.624;13.544;2022-12-05T06:38:47;28.07;;;12.73;;
18376;SDS011;9315;52.624;13.544;2022-12-05T06:41:15;33.07;;;13.30;;
18376;SDS011;9315;52.624;13.544;2022-12-05T06:43:45;28.20;;;13.70;;
18376;SDS011;9315;52.624;13.544;2022-12-05T06:46:13;31.07;;;14.43;;
18376;SDS011;9315;52.624;13.544;2022-12-05T06:48:41;33.77;;;13.60;;
18376;SDS011;9315;52.624;13.544;2022-12-05T06:51:09;30.80;;;14.00;;
18376;SDS011;9315;52.624;13.544;2022-12-05T06:53:39;33.30;;;13.63;;
18376;SDS011;9315;52.624;13.544;2022-12-05T06:56:09;34.67;;;12.30;;
18376;SDS011;9315;52.624;13.544;2022-12-05T06:58:41;33.20;;;13.33;;
18376;SDS011;9315;52.624;13.544;2022-12-05T07:01:15;34.03;;;14.10;;
18376;SDS011;9315;52.624;13.544;2022-12-05T07:06:46;28.97;;;13.27;;
18376;SDS011;9315;52.624;13.544;2022-12-05T07:09:18;32.23;;;13.23;;
18376;SDS011;9315;52.624;13.544;2022-12-05T07:12:11;29.47;;;13.10;;
18376;SDS011;9315;52.624;13.544;2022-12-05T07:14:41;33.23;;;14.93;;
18376;SDS011;9315;52.624;13.544;2022-12-05T07:17:14;33.67;;;14.17;;
18376;SDS011;9315;52.624;13.544;2022-12-05T07:19:47;35.03;;;13.20;;
18376;SDS011;9315;52.624;13.544;2022-12-05T07:22:16;34.27;;;14.57;;
18376;SDS011;9315;52.624;13.544;2022-12-05T07:24:46;35.80;;;14.30;;
18376;SDS011;9315;52.624;13.544;2022-12-05T07:27:15;35.57;;;14.30;;
18376;SDS011;9315;52.624;13.544;2022-12-05T07:29:50;40.43;;;16.50;;
18376;SDS011;9315;52.624;13.544;2022-12-05T07:32:17;37.83;;;15.20;;
18376;SDS011;9315;52.624;13.544;2022-12-05T07:34:44;38.37;;;15.20;;
18376;SDS011;9315;52.624;13.544;2022-12-05T07:37:20;42.83;;;16.40;;
18376;SDS011;9315;52.624;13.544;2022-12-05T07:39:51;37.07;;;15.30;;
18376;SDS011;9315;52.624;13.544;2022-12-05T07:42:18;37.70;;;16.70;;
18376;SDS011;9315;52.624;13.544;2022-12-05T07:44:45;37.43;;;16.03;;
18376;SDS011;9315;52.624;13.544;2022-12-05T07:47:12;38.43;;;16.93;;
18376;SDS011;9315;52.624;13.544;2022-12-05T07:49:40;37.13;;;16.73;;
18376;SDS011;9315;52.624;13.544;2022-12-05T07:52:07;37.80;;;15.53;;
18376;SDS011;9315;52.624;13.544;2022-12-05T07:54:35;38.83;;;15.43;;
18376;SDS011;9315;52.624;13.544;2022-12-05T07:57:02;35.80;;;15.00;;
18376;SDS011;9315;52.624;13.544;2022-12-05T07:59:29;35.13;;;14.47;;
18376;SDS011;9315;52.624;13.544;2022-12-05T08:01:56;33.37;;;15.07;;
18376;SDS011;9315;52.624;13.544;2022-12-05T08:04:23;35.17;;;14.53;;
18376;SDS011;9315;52.624;13.544;2022-12-05T08:06:50;33.67;;;14.83;;
18376;SDS011;9315;52.624;13.544;2022-12-05T08:09:17;33.50;;;15.00;;
18376;SDS011;9315;52.624;13.544;2022-12-05T08:11:44;30.23;;;14.00;;
18376;SDS011;9315;52.624;13.544;2022-12-05T08:14:17;34.43;;;14.10;;
18376;SDS011;9315;52.624;13.544;2022-12-05T08:16:45;36.00;;;14.60;;
18376;SDS011;9315;52.624;13.544;2022-12-05T08:19:12;35.20;;;14.33;;
18376;SDS011;9315;52.624;13.544;2022-12-05T08:21:41;30.47;;;13.50;;
18376;SDS011;9315;52.624;13.544;2022-12-05T08:24:09;32.63;;;13.90;;
18376;SDS011;9315;52.624;13.544;2022-12-05T08:26:37;31.63;;;13.17;;
18376;SDS011;9315;52.624;13.544;2022-12-05T08:29:05;31.90;;;14.10;;
18376;SDS011;9315;52.624;13.544;2022-12-05T08:31:41;31.97;;;13.83;;
18376;SDS011;9315;52.624;13.544;2022-12-05T08:34:15;28.93;;;13.13;;
18376;SDS011;9315;52.624;13.544;2022-12-05T08:36:45;31.00;;;12.90;;
18376;SDS011;9315;52.624;13.544;2022-12-05T08:39:14;31.87;;;14.13;;
18376;SDS011;9315;52.624;13.544;2022-12-05T08:41:44;30.20;;;12.83;;
18376;SDS011;9315;52.624;13.544;2022-12-05T08:44:13;30.17;;;13.60;;
18376;SDS011;9315;52.624;13.544;2022-12-05T08:46:42;25.43;;;12.57;;
18376;SDS011;9315;52.624;13.544;2022-12-05T08:49:14;30.73;;;13.87;;
18376;SDS011;9315;52.624;13.544;2022-12-05T08:51:42;32.20;;;13.80;;
18376;SDS011;9315;52.624;13.544;2022-12-05T08:54:10;28.20;;;13.30;;
18376;SDS011;9315;52.624;13.544;2022-12-05T08:56:37;32.97;;;13.37;;
18376;SDS011;9315;52.624;13.544;2022-12-05T08:59:05;29.43;;;13.03;;
18376;SDS011;9315;52.624;13.544;2022-12-05T09:01:32;34.77;;;13.97;;
18376;SDS011;9315;52.624;13.544;2022-12-05T09:04:04;27.90;;;13.50;;
18376;SDS011;9315;52.624;13.544;2022-12-05T09:06:33;31.40;;;13.63;;
18376;SDS011;9315;52.624;13.544;2022-12-05T09:09:02;26.47;;;13.10;;
18376;SDS011;9315;52.624;13.544;2022-12-05T09:11:34;30.07;;;13.10;;
18376;SDS011;9315;52.624;13.544;2022-12-05T09:14:06;28.17;;;12.97;;
18376;SDS011;9315;52.624;13.544;2022-12-05T09:16:34;28.10;;;12.83;;
18376;SDS011;9315;52.624;13.544;2022-12-05T09:19:05;25.90;;;13.10;;
18376;SDS011;9315;52.624;13.544;2022-12-05T09:21:43;23.43;;;12.07;;
18376;SDS011;9315;52.624;13.544;2022-12-05T09:24:10;27.03;;;13.27;;
18376;SDS011;9315;52.624;13.544;2022-12-05T09:26:39;27.07;;;12.67;;
18376;SDS011;9315;52.624;13.544;2022-12-05T09:29:07;27.10;;;12.70;;
18376;SDS011;9315;52.624;13.544;2022-12-05T09:31:42;28.97;;;12.83;;
18376;SDS011;9315;52.624;13.544;2022-12-05T09:34:12;34.30;;;13.60;;
18376;SDS011;9315;52.624;13.544;2022-12-05T09:36:40;32.03;;;12.73;;
18376;SDS011;9315;52.624;13.544;2022-12-05T09:39:08;25.87;;;12.60;;
18376;SDS011;9315;52.624;13.544;2022-12-05T09:44:57;27.77;;;13.00;;
18376;SDS011;9315;52.624;13.544;2022-12-05T09:48:04;25.97;;;11.90;;
18376;SDS011;9315;52.624;13.544;2022-12-05T09:50:45;27.47;;;11.77;;
18376;SDS011;9315;52.624;13.544;2022-12-05T09:53:32;31.10;;;13.90;;
18376;SDS011;9315;52.624;13.544;2022-12-05T09:56:23;29.97;;;13.77;;
18376;SDS011;9315;52.624;13.544;2022-12-05T09:58:56;25.93;;;13.23;;
18376;SDS011;9315;52.624;13.544;2022-12-05T10:07:40;27.30;;;12.63;;
18376;SDS011;9315;52.624;13.544;2022-12-05T10:10:58;37.30;;;14.77;;
18376;SDS011;9315;52.624;13.544;2022-12-05T10:16:30;33.17;;;15.20;;
18376;SDS011;9315;52.624;13.544;2022-12-05T10:19:25;33.57;;;15.03;;
18376;SDS011;9315;52.624;13.544;2022-12-05T10:24:50;39.07;;;15.13;;
18376;SDS011;9315;52.624;13.544;2022-12-05T10:30:12;38.90;;;16.17;;
18376;SDS011;9315;52.624;13.544;2022-12-05T10:32:53;33.03;;;15.17;;
18376;SDS011;9315;52.624;13.544;2022-12-05T10:35:38;38.47;;;15.97;;
18376;SDS011;9315;52.624;13.544;2022-12-05T10:40:59;38.97;;;16.40;;
18376;SDS011;9315;52.624;13.544;2022-12-05T10:43:33;33.70;;;14.97;;
18376;SDS011;9315;52.624;13.544;2022-12-05T10:46:04;37.13;;;16.73;;
18376;SDS011;9315;52.624;13.544;2022-12-05T10:48:36;43.77;;;17.80;;
18376;SDS011;9315;52.624;13.544;2022-12-05T10:51:08;35.17;;;16.20;;
18376;SDS011;9315;52.624;13.544;2022-12-05T10:53:47;37.77;;;15.93;;
18376;SDS011;9315;52.624;13.544;2022-12-05T10:59:16;36.17;;;16.27;;
18376;SDS011;9315;52.624;13.544;2022-12-05T11:02:14;46.80;;;18.20;;
18376;SDS011;9315;52.624;13.544;2022-12-05T11:05:02;36.27;;;17.20;;
18376;SDS011;9315;52.624;13.544;2022-12-05T11:07:31;47.60;;;18.13;;
18376;SDS011;9315;52.624;13.544;2022-12-05T11:10:04;46.77;;;18.10;;
18376;SDS011;9315;52.624;13.544;2022-12-05T11:12:55;58.73;;;20.00;;
18376;SDS011;9315;52.624;13.544;2022-12-05T11:15:28;52.67;;;19.30;;
18376;SDS011;9315;52.624;13.544;2022-12-05T11:17:58;54.43;;;19.77;;
18376;SDS011;9315;52.624;13.544;2022-12-05T11:20:49;54.33;;;19.83;;
18376;SDS011;9315;52.624;13.544;2022-12-05T11:25:56;49.23;;;19.00;;
18376;SDS011;9315;52.624;13.544;2022-12-05T11:28:34;46.50;;;19.17;;
18376;SDS011;9315;52.624;13.544;2022-12-05T11:33:41;44.33;;;19.47;;
18376;SDS011;9315;52.624;13.544;2022-12-05T11:36:34;55.00;;;20.60;;
18376;SDS011;9315;52.624;13.544;2022-12-05T11:39:12;53.80;;;21.27;;
18376;SDS011;9315;52.624;13.544;2022-12-05T11:41:49;49.63;;;21.60;;
18376;SDS011;9315;52.624;13.544;2022-12-05T11:45:01;50.33;;;20.47;;
18376;SDS011;9315;52.624;13.544;2022-12-05T12:15:02;77.87;;;24.53;;
18376;SDS011;9315;52.624;13.544;2022-12-05T12:27:14;55.07;;;22.93;;
18376;SDS011;9315;52.624;13.544;2022-12-05T12:32:53;53.97;;;21.87;;
18376;SDS011;9315;52.624;13.544;2022-12-05T12:35:43;52.07;;;20.93;;
18376;SDS011;9315;52.624;13.544;2022-12-05T12:51:44;62.27;;;22.53;;
18376;SDS011;9315;52.624;13.544;2022-12-05T12:54:48;60.03;;;21.77;;
18376;SDS011;9315;52.624;13.544;2022-12-05T13:02:12;47.80;;;20.80;;
18376;SDS011;9315;52.624;13.544;2022-12-05T13:04:31;59.43;;;21.57;;
18376;SDS011;9315;52.624;13.544;2022-12-05T13:07:09;55.63;;;21.23;;
18376;SDS011;9315;52.624;13.544;2022-12-05T13:09:47;50.37;;;20.23;;
18376;SDS011;9315;52.624;13.544;2022-12-05T13:12:29;51.17;;;21.27;;
18376;SDS011;9315;52.624;13.544;2022-12-05T13:15:04;55.07;;;23.73;;
18376;SDS011;9315;52.624;13.544;2022-12-05T13:17:42;52.17;;;20.63;;
18376;SDS011;9315;52.624;13.544;2022-12-05T13:20:17;60.00;;;21.33;;
18376;SDS011;9315;52.624;13.544;2022-12-05T13:22:48;50.80;;;20.27;;
18376;SDS011;9315;52.624;13.544;2022-12-05T13:25:18;61.57;;;21.37;;
18376;SDS011;9315;52.624;13.544;2022-12-05T13:27:53;48.47;;;19.67;;
18376;SDS011;9315;52.624;13.544;2022-12-05T13:30:28;63.33;;;22.63;;
18376;SDS011;9315;52.624;13.544;2022-12-05T13:33:18;65.47;;;22.03;;
18376;SDS011;9315;52.624;13.544;2022-12-05T13:35:54;57.50;;;20.77;;
18376;SDS011;9315;52.624;13.544;2022-12-05T13:38:48;57.97;;;21.67;;
18376;SDS011;9315;52.624;13.544;2022-12-05T13:41:40;86.60;;;23.83;;
18376;SDS011;9315;52.624;13.544;2022-12-05T13:44:31;74.33;;;21.70;;
18376;SDS011;9315;52.624;13.544;2022-12-05T13:47:21;62.87;;;21.13;;
18376;SDS011;9315;52.624;13.544;2022-12-05T13:53:01;47.63;;;19.97;;
18376;SDS011;9315;52.624;13.544;2022-12-05T13:55:55;74.27;;;21.87;;
18376;SDS011;9315;52.624;13.544;2022-12-05T14:09:26;97.27;;;24.50;;
18376;SDS011;9315;52.624;13.544;2022-12-05T14:17:25;65.67;;;21.23;;
18376;SDS011;9315;52.624;13.544;2022-12-05T14:22:59;68.97;;;22.50;;
18376;SDS011;9315;52.624;13.544;2022-12-05T14:29:02;77.07;;;23.10;;
18376;SDS011;9315;52.624;13.544;2022-12-05T14:35:18;70.33;;;21.73;;
18376;SDS011;9315;52.624;13.544;2022-12-05T14:38:06;65.57;;;20.70;;
18376;SDS011;9315;52.624;13.544;2022-12-05T14:41:12;77.80;;;23.33;;
18376;SDS011;9315;52.624;13.544;2022-12-05T14:43:53;48.97;;;18.70;;
18376;SDS011;9315;52.624;13.544;2022-12-05T14:46:28;73.47;;;22.80;;
18376;SDS011;9315;52.624;13.544;2022-12-05T14:48:58;86.53;;;23.37;;
18376;SDS011;9315;52.624;13.544;2022-12-05T14:52:28;72.90;;;22.63;;
18376;SDS011;9315;52.624;13.544;2022-12-05T14:55:04;68.93;;;21.90;;
18376;SDS011;9315;52.624;13.544;2022-12-05T14:57:47;76.87;;;21.97;;
18376;SDS011;9315;52.624;13.544;2022-12-05T15:00:23;92.03;;;24.37;;
18376;SDS011;9315;52.624;13.544;2022-12-05T15:02:51;116.23;;;24.53;;
18376;SDS011;9315;52.624;13.544;2022-12-05T15:05:28;73.47;;;21.97;;
18376;SDS011;9315;52.624;13.544;2022-12-05T15:07:58;88.77;;;24.10;;
18376;SDS011;9315;52.624;13.544;2022-12-05T15:10:31;79.43;;;23.43;;
18376;SDS011;9315;52.624;13.544;2022-12-05T15:18:24;90.60;;;23.17;;
18376;SDS011;9315;52.624;13.544;2022-12-05T15:21:20;111.67;;;25.53;;
18376;SDS011;9315;52.624;13.544;2022-12-05T15:24:00;144.23;;;28.17;;
18376;SDS011;9315;52.624;13.544;2022-12-05T15:26:39;115.30;;;26.37;;
18376;SDS011;9315;52.624;13.544;2022-12-05T15:31:59;115.30;;;26.27;;
18376;SDS011;9315;52.624;13.544;2022-12-05T15:42:46;257.60;;;33.73;;
18376;SDS011;9315;52.624;13.544;2022-12-05T15:45:20;121.80;;;24.10;;
18376;SDS011;9315;52.624;13.544;2022-12-05T15:50:42;138.47;;;27.50;;
18376;SDS011;9315;52.624;13.544;2022-12-05T15:53:17;344.13;;;35.90;;
18376;SDS011;9315;52.624;13.544;2022-12-05T15:56:22;506.93;;;43.10;;
18376;SDS011;9315;52.624;13.544;2022-12-05T16:02:16;264.70;;;30.87;;
18376;SDS011;9315;52.624;13.544;2022-12-05T16:04:55;341.43;;;34.67;;
18376;SDS011;9315;52.624;13.544;2022-12-05T16:07:26;436.77;;;37.53;;
18376;SDS011;9315;52.624;13.544;2022-12-05T16:09:56;114.07;;;26.47;;
18376;SDS011;9315;52.624;13.544;2022-12-05T16:12:34;73.20;;;24.30;;
18376;SDS011;9315;52.624;13.544;2022-12-05T16:15:12;124.13;;;24.50;;
18376;SDS011;9315;52.624;13.544;2022-12-05T16:17:56;378.20;;;35.70;;
18376;SDS011;9315;52.624;13.544;2022-12-05T16:23:00;176.13;;;28.23;;
18376;SDS011;9315;52.624;13.544;2022-12-05T16:26:36;266.47;;;32.77;;
18376;SDS011;9315;52.624;13.544;2022-12-05T16:29:05;543.33;;;44.83;;
18376;SDS011;9315;52.624;13.544;2022-12-05T16:31:52;189.33;;;29.23;;
18376;SDS011;9315;52.624;13.544;2022-12-05T16:34:26;601.50;;;46.90;;
18376;SDS011;9315;52.624;13.544;2022-12-05T16:36:57;311.10;;;36.90;;
18376;SDS011;9315;52.624;13.544;2022-12-05T16:39:25;146.97;;;28.27;;
18376;SDS011;9315;52.624;13.544;2022-12-05T16:41:53;202.00;;;31.57;;
18376;SDS011;9315;52.624;13.544;2022-12-05T16:50:21;303.57;;;34.37;;
18376;SDS011;9315;52.624;13.544;2022-12-05T16:53:00;529.20;;;45.03;;
18376;SDS011;9315;52.624;13.544;2022-12-05T16:55:37;195.30;;;30.50;;
18376;SDS011;9315;52.624;13.544;2022-12-05T16:58:08;361.40;;;37.63;;
18376;SDS011;9315;52.624;13.544;2022-12-05T17:00:44;158.43;;;29.50;;
18376;SDS011;9315;52.624;13.544;2022-12-05T17:03:12;489.30;;;43.47;;
18376;SDS011;9315;52.624;13.544;2022-12-05T17:05:59;326.80;;;37.87;;
18376;SDS011;9315;52.624;13.544;2022-12-05T17:08:26;213.37;;;30.87;;
18376;SDS011;9315;52.624;13.544;2022-12-05T17:10:53;173.60;;;28.33;;
18376;SDS011;9315;52.624;13.544;2022-12-05T17:13:20;558.07;;;47.43;;
18376;SDS011;9315;52.624;13.544;2022-12-05T17:15:47;277.10;;;37.73;;
18376;SDS011;9315;52.624;13.544;2022-12-05T17:18:16;566.73;;;48.00;;
18376;SDS011;9315;52.624;13.544;2022-12-05T17:20:49;196.50;;;30.37;;
18376;SDS011;9315;52.624;13.544;2022-12-05T17:23:20;569.30;;;46.73;;
18376;SDS011;9315;52.624;13.544;2022-12-05T17:25:57;167.13;;;29.77;;
18376;SDS011;9315;52.624;13.544;2022-12-05T17:28:24;382.93;;;40.73;;
18376;SDS011;9315;52.624;13.544;2022-12-05T17:30:51;425.57;;;40.07;;
18376;SDS011;9315;52.624;13.544;2022-12-05T17:33:18;681.40;;;49.27;;
18376;SDS011;9315;52.624;13.544;2022-12-05T17:35:47;321.93;;;35.37;;
18376;SDS011;9315;52.624;13.544;2022-12-05T17:38:14;155.87;;;29.47;;
18376;SDS011;9315;52.624;13.544;2022-12-05T17:40:41;175.17;;;30.13;;
18376;SDS011;9315;52.624;13.544;2022-12-05T17:43:09;89.43;;;25.17;;
18376;SDS011;9315;52.624;13.544;2022-12-05T17:45:48;331.57;;;37.23;;
18376;SDS011;9315;52.624;13.544;2022-12-05T17:48:15;87.83;;;25.90;;
18376;SDS011;9315;52.624;13.544;2022-12-05T17:50:43;239.67;;;33.50;;
18376;SDS011;9315;52.624;13.544;2022-12-05T17:53:18;166.67;;;28.13;;
18376;SDS011;9315;52.624;13.544;2022-12-05T17:55:46;320.23;;;35.53;;
18376;SDS011;9315;52.624;13.544;2022-12-05T17:58:14;582.63;;;47.57;;
18376;SDS011;9315;52.624;13.544;2022-12-05T18:00:43;412.97;;;41.77;;
18376;SDS011;9315;52.624;13.544;2022-12-05T18:03:12;574.47;;;47.70;;
18376;SDS011;9315;52.624;13.544;2022-12-05T18:05:43;214.43;;;33.40;;
18376;SDS011;9315;52.624;13.544;2022-12-05T18:08:11;354.07;;;38.10;;
18376;SDS011;9315;52.624;13.544;2022-12-05T18:10:42;488.90;;;43.83;;
18376;SDS011;9315;52.624;13.544;2022-12-05T18:13:12;175.90;;;29.47;;
18376;SDS011;9315;52.624;13.544;2022-12-05T18:15:41;441.57;;;42.47;;
18376;SDS011;9315;52.624;13.544;2022-12-05T18:18:10;381.37;;;42.30;;